Time;durP1;ratioP1;P1;durP2;ratioP2;P2;SDS_P1;SDS_P2;PMS_P1;PMS_P2;Temp;Humidity;BMP_temperature;BMP_pressure;BME280_temperature;BME280_humidity;BME280_pressure;Samples;Min_cycle;Max_cycle;Signal;HPM_P1;HPM_P2
2023/01/09 05:31:00;;;;;;;3.60;1.23;;;7.70;75.90;;;;;;5605750;23;20050;-77
2023/01/09 05:33:25;;;;;;;5.50;1.48;;;7.70;76.10;;;;;;4959725;29;20063;-77
2023/01/09 05:35:51;;;;;;;1.25;1.08;;;7.60;76.10;;;;;;4941673;29;20090;-77
2023/01/09 05:38:16;;;;;;;5.25;1.88;;;7.60;76.40;;;;;;4949631;29;20028;-77
2023/01/09 05:40:44;;;;;;;2.67;1.33;;;7.60;76.40;;;;;;4940293;29;20035;-77
2023/01/09 05:43:11;;;;;;;3.10;1.92;;;7.60;76.60;;;;;;4940566;29;20032;-78
2023/01/09 05:45:37;;;;;;;8.07;1.63;;;7.60;76.30;;;;;;4942134;29;20158;-79
2023/01/09 05:48:03;;;;;;;3.38;1.40;;;7.50;76.70;;;;;;4941871;29;20506;-80
2023/01/09 05:50:28;;;;;;;4.63;1.27;;;7.50;76.80;;;;;;4940188;29;20106;-79
2023/01/09 05:52:54;;;;;;;4.93;1.85;;;7.60;76.90;;;;;;4940975;29;20036;-78
2023/01/09 05:55:19;;;;;;;3.60;1.38;;;7.50;77.00;;;;;;4951108;29;20375;-80
2023/01/09 05:57:45;;;;;;;6.97;1.30;;;7.60;76.80;;;;;;4956770;29;20031;-79
2023/01/09 06:00:11;;;;;;;3.70;1.45;;;7.50;77.10;;;;;;4938947;29;20032;-79
2023/01/09 06:02:37;;;;;;;7.82;1.65;;;7.50;77.10;;;;;;4932666;29;20020;-78
2023/01/09 06:05:03;;;;;;;4.20;1.48;;;7.50;77.00;;;;;;4933267;29;20074;-79
2023/01/09 06:07:28;;;;;;;2.53;1.20;;;7.50;77.30;;;;;;4951528;29;20417;-79
2023/01/09 06:09:54;;;;;;;3.60;1.42;;;7.40;77.40;;;;;;4959540;29;20130;-77
2023/01/09 06:12:20;;;;;;;3.53;1.50;;;7.50;77.50;;;;;;4943253;29;20024;-82
2023/01/09 06:14:50;;;;;;;7.18;1.48;;;7.50;77.40;;;;;;4923520;29;20042;-80
2023/01/09 06:17:15;;;;;;;;;;;7.50;77.20;;;;;;4941016;29;20023;-87
2023/01/09 06:19:41;;;;;;;15.40;4.00;;;7.60;77.10;;;;;;4946825;29;20369;-83
2023/01/09 06:22:07;;;;;;;7.53;2.78;;;7.60;77.10;;;;;;4942750;29;20034;-81
2023/01/09 06:24:32;;;;;;;6.38;2.08;;;7.60;76.90;;;;;;4949150;29;20034;-79
2023/01/09 06:26:58;;;;;;;8.35;2.33;;;7.60;76.80;;;;;;4938010;29;20035;-80
2023/01/09 06:29:23;;;;;;;2.90;1.88;;;7.50;76.70;;;;;;4959180;29;20058;-80
2023/01/09 06:31:54;;;;;;;3.42;1.20;;;7.50;76.90;;;;;;4958222;29;20055;-78
2023/01/09 06:34:20;;;;;;;6.07;1.70;;;7.60;76.70;;;;;;4936012;29;20375;-80
2023/01/09 06:36:45;;;;;;;2.42;1.83;;;7.60;76.70;;;;;;4953148;29;20046;-82
2023/01/09 06:39:12;;;;;;;5.68;1.73;;;7.50;76.50;;;;;;4945914;29;20439;-82
2023/01/09 06:41:38;;;;;;;5.45;1.73;;;7.40;77.00;;;;;;4939690;29;20028;-81
2023/01/09 06:44:04;;;;;;;3.05;1.65;;;7.50;76.90;;;;;;4939474;29;20111;-80
2023/01/09 06:46:29;;;;;;;4.70;1.50;;;7.40;76.70;;;;;;4923832;29;20446;-87
2023/01/09 06:49:04;;;;;;;3.85;1.30;;;7.30;76.70;;;;;;4940303;29;20813;-79
2023/01/09 06:51:29;;;;;;;5.07;1.67;;;7.40;76.50;;;;;;4939378;29;20055;-79
2023/01/09 06:53:55;;;;;;;2.65;1.30;;;7.40;76.90;;;;;;4944410;29;20027;-84
2023/01/09 06:56:21;;;;;;;7.18;2.05;;;7.30;76.80;;;;;;4936451;29;20046;-77
2023/01/09 06:58:47;;;;;;;2.08;1.40;;;7.30;76.80;;;;;;4957712;29;20482;-77
2023/01/09 07:01:12;;;;;;;4.10;1.20;;;7.30;76.80;;;;;;4956194;29;20031;-77
2023/01/09 07:03:38;;;;;;;3.70;1.35;;;7.30;76.60;;;;;;4937900;29;20028;-77
2023/01/09 07:06:04;;;;;;;6.00;1.27;;;7.40;76.70;;;;;;4938601;29;20035;-77
2023/01/09 07:08:30;;;;;;;6.40;1.88;;;7.30;76.60;;;;;;4941243;29;20023;-77
2023/01/09 07:10:56;;;;;;;7.03;1.80;;;7.40;76.30;;;;;;4938819;29;20039;-78
2023/01/09 07:13:22;;;;;;;3.05;1.48;;;7.40;76.70;;;;;;4939178;29;20035;-78
2023/01/09 07:15:48;;;;;;;3.38;1.35;;;7.40;76.40;;;;;;4938774;29;20127;-77
2023/01/09 07:18:14;;;;;;;1.42;1.13;;;7.50;76.50;;;;;;4938713;29;20024;-77
2023/01/09 07:20:40;;;;;;;3.30;1.60;;;7.40;76.40;;;;;;4938948;29;20027;-77
2023/01/09 07:23:11;;;;;;;4.80;2.05;;;7.40;76.50;;;;;;4939297;29;20059;-77
2023/01/09 07:25:37;;;;;;;8.05;2.88;;;7.50;76.30;;;;;;4939890;29;20183;-78
2023/01/09 07:28:03;;;;;;;2.78;1.50;;;7.50;76.30;;;;;;4957046;29;20062;-78
2023/01/09 07:30:28;;;;;;;6.25;1.60;;;7.50;76.20;;;;;;4942833;29;20183;-78
2023/01/09 07:32:54;;;;;;;2.47;1.55;;;7.40;76.20;;;;;;4954568;29;20031;-78
2023/01/09 07:35:19;;;;;;;3.88;1.40;;;7.40;75.90;;;;;;4957733;29;20023;-77
2023/01/09 07:37:46;;;;;;;5.68;1.55;;;7.40;76.10;;;;;;4945342;29;20038;-77
2023/01/09 07:40:14;;;;;;;2.47;1.55;;;7.40;76.10;;;;;;4938475;29;20450;-77
2023/01/09 07:42:40;;;;;;;4.97;1.75;;;7.50;76.00;;;;;;4938482;29;20098;-77
2023/01/09 07:45:06;;;;;;;2.15;1.60;;;7.40;76.00;;;;;;4938938;29;20062;-77
2023/01/09 07:47:32;;;;;;;3.55;1.55;;;7.40;76.10;;;;;;4938275;29;20027;-77
2023/01/09 07:49:58;;;;;;;8.35;2.47;;;7.40;76.10;;;;;;4938824;29;20409;-77
2023/01/09 07:52:23;;;;;;;7.95;2.42;;;7.40;76.10;;;;;;4938418;29;20550;-77
2023/01/09 07:54:49;;;;;;;5.20;1.90;;;7.40;75.80;;;;;;4949771;29;20030;-77
2023/01/09 07:57:22;;;;;;;10.25;2.42;;;7.30;76.20;;;;;;4957715;29;20178;-77
2023/01/09 07:59:47;;;;;;;7.40;1.60;;;7.30;76.20;;;;;;4936308;29;20062;-77
2023/01/09 08:02:13;;;;;;;5.05;1.65;;;7.30;76.00;;;;;;4948798;29;20030;-77
2023/01/09 08:04:39;;;;;;;6.72;1.88;;;7.30;76.00;;;;;;4957217;29;20034;-77
2023/01/09 08:07:04;;;;;;;3.85;1.45;;;7.30;76.00;;;;;;4957260;29;20023;-77
2023/01/09 08:09:30;;;;;;;9.50;2.40;;;7.30;76.00;;;;;;4947059;29;20038;-77
2023/01/09 08:11:56;;;;;;;10.18;2.50;;;7.40;75.70;;;;;;4953140;29;20106;-77
2023/01/09 08:14:22;;;;;;;6.88;1.58;;;7.40;75.80;;;;;;4944747;29;20039;-77
2023/01/09 08:16:47;;;;;;;6.00;1.58;;;7.40;75.80;;;;;;4937999;29;20028;-78
2023/01/09 08:19:13;;;;;;;4.47;2.33;;;7.40;75.70;;;;;;4938099;29;20132;-78
2023/01/09 08:21:39;;;;;;;5.32;1.60;;;7.30;75.50;;;;;;4943255;28;20031;-78
2023/01/09 08:24:05;;;;;;;3.80;1.40;;;7.30;75.60;;;;;;4957108;29;20038;-78
2023/01/09 08:26:31;;;;;;;4.75;1.48;;;7.40;75.50;;;;;;4954932;29;20107;-78
2023/01/09 08:28:56;;;;;;;2.75;1.92;;;7.50;75.50;;;;;;4938097;29;20055;-78
2023/01/09 08:31:22;;;;;;;3.22;1.52;;;7.60;75.30;;;;;;4941970;29;20178;-78
2023/01/09 08:33:48;;;;;;;3.83;1.58;;;7.60;75.50;;;;;;4957263;29;20038;-78
2023/01/09 08:36:13;;;;;;;5.35;2.20;;;7.70;75.50;;;;;;4957176;29;20062;-78
2023/01/09 08:38:39;;;;;;;6.75;2.53;;;7.90;75.00;;;;;;4954165;29;20031;-78
2023/01/09 08:47:04;;;;;;;4.32;2.00;;;8.00;74.80;;;;;;4940804;29;20462;-78
2023/01/09 08:49:19;;;;;;;8.23;2.38;;;8.00;74.60;;;;;;4938150;29;20042;-78
2023/01/09 08:51:45;;;;;;;3.85;1.98;;;8.00;74.70;;;;;;4938197;29;20024;-79
2023/01/09 08:54:11;;;;;;;6.25;1.95;;;8.10;74.70;;;;;;4944309;29;20039;-78
2023/01/09 08:56:36;;;;;;;3.53;1.73;;;8.10;74.80;;;;;;4957078;29;20061;-79
2023/01/09 08:59:02;;;;;;;7.90;1.70;;;8.20;74.80;;;;;;4956759;29;20050;-79
2023/01/09 09:01:28;;;;;;;6.55;2.13;;;8.20;74.50;;;;;;4947287;29;20402;-79
2023/01/09 09:03:54;;;;;;;2.70;1.45;;;8.10;74.40;;;;;;4956954;29;20484;-78
2023/01/09 09:06:19;;;;;;;3.20;2.00;;;8.10;74.30;;;;;;4949485;29;20032;-78
2023/01/09 09:08:45;;;;;;;6.10;1.55;;;8.00;74.30;;;;;;4937765;29;20032;-78
2023/01/09 09:11:11;;;;;;;2.67;1.55;;;8.00;74.50;;;;;;4941760;29;20028;-77
2023/01/09 09:13:36;;;;;;;3.22;1.50;;;8.00;74.50;;;;;;4938485;29;20071;-78
2023/01/09 09:16:02;;;;;;;3.63;1.42;;;7.90;74.90;;;;;;4954424;29;20027;-78
2023/01/09 09:18:28;;;;;;;9.82;3.63;;;7.90;74.70;;;;;;4944788;29;20036;-78
2023/01/09 09:20:53;;;;;;;3.58;1.98;;;7.90;75.00;;;;;;4937712;29;20030;-78
2023/01/09 09:23:19;;;;;;;1.92;1.55;;;8.00;75.10;;;;;;4938008;29;20091;-78
2023/01/09 09:25:45;;;;;;;2.60;1.67;;;8.10;74.70;;;;;;4937702;29;20055;-78
2023/01/09 09:28:10;;;;;;;6.63;2.17;;;8.30;74.60;;;;;;4938132;29;20040;-78
2023/01/09 09:30:37;;;;;;;2.92;1.38;;;8.60;73.80;;;;;;4937259;29;20060;-77
2023/01/09 09:33:04;;;;;;;8.48;1.58;;;8.90;72.60;;;;;;4953595;28;20047;-78
2023/01/09 09:35:31;;;;;;;4.45;1.33;;;9.10;72.00;;;;;;4959478;29;20023;-78
2023/01/09 09:37:59;;;;;;;3.47;1.30;;;9.00;71.80;;;;;;4944549;29;20509;-78
2023/01/09 09:40:56;;;;;;;4.38;1.73;;;8.90;72.40;;;;;;4940775;29;20067;-78
2023/01/09 09:46:39;;;;;;;5.10;1.67;;;8.70;72.90;;;;;;4940606;29;20459;-78
2023/01/09 09:49:20;;;;;;;3.45;1.65;;;8.80;73.00;;;;;;4940687;29;20059;-78
2023/01/09 09:51:58;;;;;;;4.05;1.67;;;8.70;73.00;;;;;;4940907;29;20028;-78
2023/01/09 09:54:32;;;;;;;5.40;2.28;;;8.90;73.10;;;;;;4948804;29;20035;-78
2023/01/09 09:57:01;;;;;;;2.65;1.70;;;9.00;73.10;;;;;;4956519;29;20059;-78
2023/01/09 09:59:36;;;;;;;5.72;1.50;;;9.10;72.80;;;;;;4940531;29;20103;-78
2023/01/09 10:02:07;;;;;;;4.80;1.98;;;9.20;72.70;;;;;;4943981;29;20028;-79
2023/01/09 10:04:35;;;;;;;4.63;1.40;;;9.30;72.10;;;;;;4942656;29;20062;-79
2023/01/09 10:07:08;;;;;;;4.65;1.70;;;9.30;72.30;;;;;;4959545;29;20020;-78
2023/01/09 10:09:59;;;;;;;5.97;1.60;;;9.30;72.40;;;;;;4954057;29;20091;-79
2023/01/09 10:12:36;;;;;;;6.82;2.03;;;9.30;72.60;;;;;;4959030;29;20035;-78
2023/01/09 10:15:19;;;;;;;4.15;1.23;;;9.20;73.00;;;;;;4951252;29;20040;-79
2023/01/09 10:17:48;;;;;;;4.38;1.58;;;9.10;73.10;;;;;;4940112;29;20039;-78
2023/01/09 10:20:34;;;;;;;4.75;1.60;;;9.00;73.20;;;;;;4940044;29;20023;-78
2023/01/09 10:23:19;;;;;;;2.85;1.55;;;8.90;73.50;;;;;;4940292;29;20091;-78
2023/01/09 10:25:54;;;;;;;5.47;1.50;;;8.80;73.80;;;;;;4954906;29;20019;-78
2023/01/09 10:28:38;;;;;;;3.88;1.25;;;8.80;73.90;;;;;;4957226;29;20023;-78
2023/01/09 10:31:36;;;;;;;3.83;1.63;;;8.80;74.20;;;;;;4939742;29;20051;-78
2023/01/09 10:34:10;;;;;;;1.95;1.02;;;8.90;74.20;;;;;;4939999;29;20027;-78
2023/01/09 10:37:09;;;;;;;4.32;1.48;;;9.00;74.40;;;;;;4939821;29;20108;-79
2023/01/09 10:39:56;;;;;;;1.80;1.60;;;9.10;74.10;;;;;;4944984;29;20102;-78
2023/01/09 10:42:25;;;;;;;6.72;2.13;;;9.30;74.10;;;;;;4958948;29;20030;-79
2023/01/09 10:45:06;;;;;;;8.57;1.55;;;9.30;73.60;;;;;;4956281;28;20027;-79
2023/01/09 10:47:34;;;;;;;4.70;1.55;;;9.40;73.70;;;;;;4939527;29;20023;-79
2023/01/09 10:50:16;;;;;;;5.90;1.55;;;9.50;73.50;;;;;;4939724;29;20037;-78
2023/01/09 10:52:43;;;;;;;6.68;1.85;;;9.60;73.30;;;;;;4939613;29;20145;-79
2023/01/09 10:55:20;;;;;;;7.30;1.70;;;9.70;73.50;;;;;;4952765;29;20110;-79
2023/01/09 10:57:54;;;;;;;2.53;1.42;;;9.90;73.10;;;;;;4958579;29;20027;-79
2023/01/09 11:00:22;;;;;;;3.00;1.35;;;10.00;72.50;;;;;;4940678;29;20035;-79
2023/01/09 11:02:48;;;;;;;5.68;1.48;;;10.00;71.70;;;;;;4939331;29;20023;-79
2023/01/09 11:05:21;;;;;;;3.55;1.48;;;10.00;72.60;;;;;;4939828;29;20040;-79
2023/01/09 11:08:12;;;;;;;6.45;1.55;;;10.10;72.60;;;;;;4922262;29;20024;-79
2023/01/09 11:10:59;;;;;;;5.07;1.65;;;10.20;72.30;;;;;;4943628;29;20039;-79
2023/01/09 11:13:32;;;;;;;5.72;1.50;;;10.20;72.20;;;;;;4958087;29;20397;-79
2023/01/09 11:16:00;;;;;;;4.72;1.20;;;10.20;71.90;;;;;;4942061;29;20111;-79
2023/01/09 11:18:26;;;;;;;3.35;1.80;;;10.10;71.60;;;;;;4949513;29;20038;-79
2023/01/09 11:20:52;;;;;;;5.03;1.52;;;10.00;72.10;;;;;;4958218;29;20031;-79
2023/01/09 11:23:30;;;;;;;4.00;1.48;;;10.00;72.30;;;;;;4958180;29;20038;-79
2023/01/09 11:25:59;;;;;;;4.22;1.30;;;10.00;72.50;;;;;;4951887;29;20530;-78
2023/01/09 11:28:25;;;;;;;7.35;1.70;;;10.10;72.30;;;;;;4939111;29;20038;-78
2023/01/09 11:30:59;;;;;;;5.80;1.83;;;10.20;72.50;;;;;;4938579;29;20060;-78
2023/01/09 11:33:27;;;;;;;5.18;1.42;;;10.20;72.40;;;;;;4938646;29;20028;-78
2023/01/09 11:36:02;;;;;;;5.57;1.30;;;10.20;72.70;;;;;;4938580;29;20032;-78
2023/01/09 11:38:30;;;;;;;8.00;1.33;;;10.30;72.50;;;;;;4938802;29;20031;-78
2023/01/09 11:41:02;;;;;;;8.70;1.23;;;10.30;72.50;;;;;;4921818;29;20042;-78
2023/01/09 11:43:34;;;;;;;4.45;1.40;;;10.30;72.30;;;;;;4938855;29;20024;-78
2023/01/09 11:46:06;;;;;;;5.05;1.23;;;10.40;72.20;;;;;;4938408;29;20023;-79
2023/01/09 11:48:39;;;;;;;3.05;1.33;;;10.60;72.10;;;;;;4938546;29;20047;-78
2023/01/09 11:51:17;;;;;;;5.00;1.77;;;10.80;71.60;;;;;;4938320;29;20035;-78
2023/01/09 11:54:10;;;;;;;9.35;1.67;;;11.00;71.40;;;;;;4941545;29;20039;-79
2023/01/09 11:56:37;;;;;;;4.75;1.90;;;11.20;71.00;;;;;;4956846;28;20529;-78
2023/01/09 11:59:18;;;;;;;7.80;1.40;;;11.20;70.80;;;;;;4939623;29;20035;-79
2023/01/09 12:01:59;;;;;;;3.45;1.17;;;11.10;71.20;;;;;;4920999;29;20110;-79
2023/01/09 12:04:40;;;;;;;8.13;2.30;;;10.90;72.40;;;;;;4938259;29;20046;-78
2023/01/09 12:07:24;;;;;;;7.28;2.38;;;10.70;73.60;;;;;;4938319;29;20021;-78
2023/01/09 12:09:49;;;;;;;6.10;2.17;;;10.70;73.90;;;;;;4938128;29;20024;-78
2023/01/09 12:12:28;;;;;;;5.47;1.15;;;10.70;73.70;;;;;;4955601;29;20401;-78
2023/01/09 12:15:00;;;;;;;2.85;1.40;;;10.70;73.30;;;;;;4942092;29;20027;-78
2023/01/09 12:17:35;;;;;;;1.42;0.90;;;10.70;73.00;;;;;;4938083;29;20035;-78
2023/01/09 12:20:19;;;;;;;5.85;1.30;;;10.80;73.00;;;;;;4938424;29;20060;-78
2023/01/09 12:22:59;;;;;;;5.70;1.08;;;10.90;73.00;;;;;;4938522;29;20417;-79
2023/01/09 12:25:55;;;;;;;4.27;0.93;;;11.00;72.50;;;;;;4946374;29;20038;-79
2023/01/09 12:28:33;;;;;;;3.25;0.80;;;11.00;71.70;;;;;;4932647;29;20059;-79
2023/01/09 12:31:20;;;;;;;3.45;1.00;;;10.80;71.30;;;;;;4937981;29;20573;-78
2023/01/09 12:34:20;;;;;;;2.80;0.85;;;10.70;71.20;;;;;;4956866;29;20031;-78
2023/01/09 12:36:58;;;;;;;2.63;0.70;;;10.60;70.90;;;;;;4952328;29;20036;-78
2023/01/09 12:39:42;;;;;;;1.75;0.80;;;10.70;70.60;;;;;;4955915;29;20100;-78
2023/01/09 12:42:33;;;;;;;1.40;0.82;;;10.60;70.30;;;;;;4937991;29;20503;-78
2023/01/09 12:45:31;;;;;;;3.63;0.95;;;10.50;70.30;;;;;;4938411;29;20024;-78
2023/01/09 12:48:07;;;;;;;5.32;1.00;;;10.50;70.60;;;;;;4870836;29;20044;-78
2023/01/09 12:50:58;;;;;;;6.70;1.20;;;10.40;70.50;;;;;;4946408;29;20090;-78
2023/01/09 12:53:34;;;;;;;3.20;1.15;;;10.30;70.10;;;;;;4946590;29;20038;-78
2023/01/09 12:56:14;;;;;;;1.40;0.95;;;10.20;69.80;;;;;;4957044;29;20473;-78
2023/01/09 12:58:42;;;;;;;6.00;1.00;;;10.10;70.00;;;;;;4939795;29;20031;-77
2023/01/09 13:01:15;;;;;;;3.50;0.88;;;10.00;70.50;;;;;;4943396;29;20024;-78
2023/01/09 13:04:13;;;;;;;5.90;1.48;;;10.10;70.80;;;;;;4937658;29;20016;-78
2023/01/09 13:06:44;;;;;;;2.45;1.02;;;10.40;71.20;;;;;;4934058;29;20118;-78
2023/01/09 13:09:16;;;;;;;2.08;0.98;;;10.50;70.10;;;;;;4940822;29;20043;-79
2023/01/09 13:12:09;;;;;;;8.77;1.30;;;10.60;70.20;;;;;;4954414;29;20514;-78
2023/01/09 13:15:09;;;;;;;6.05;1.42;;;10.70;70.50;;;;;;4959081;29;20221;-79
2023/01/09 13:17:39;;;;;;;;;;;10.90;70.40;;;;;;4941313;29;20043;-79
2023/01/09 13:20:38;;;;;;;1.50;0.82;;;10.90;71.30;;;;;;4941071;29;19911;-79
2023/01/09 13:23:05;;;;;;;4.50;1.27;;;10.80;71.10;;;;;;4941115;29;20470;-79
2023/01/09 13:25:53;;;;;;;3.25;0.93;;;10.70;70.80;;;;;;4952704;29;20095;-78
2023/01/09 13:28:25;;;;;;;3.45;1.25;;;10.50;70.10;;;;;;4960395;29;20019;-78
2023/01/09 13:31:07;;;;;;;3.40;1.10;;;10.50;70.40;;;;;;4959948;29;20877;-78
2023/01/09 13:33:35;;;;;;;6.93;1.27;;;10.30;70.80;;;;;;4949275;29;20023;-78
2023/01/09 13:36:02;;;;;;;3.92;0.90;;;10.30;71.20;;;;;;4940891;29;20423;-78
2023/01/09 13:38:30;;;;;;;2.95;1.30;;;10.30;71.30;;;;;;4941313;29;20027;-78
2023/01/09 13:44:06;;;;;;;5.28;1.45;;;10.50;71.60;;;;;;4960005;29;20061;-78
2023/01/09 13:46:36;;;;;;;2.70;1.02;;;10.70;70.90;;;;;;4944214;29;20569;-78
2023/01/09 13:49:02;;;;;;;5.07;0.90;;;10.90;70.50;;;;;;4940622;29;20506;-79
2023/01/09 13:51:56;;;;;;;4.63;0.93;;;11.10;69.30;;;;;;4940779;29;20031;-79
2023/01/09 13:54:54;;;;;;;3.92;1.10;;;11.10;67.70;;;;;;4939832;29;20048;-78
2023/01/09 13:57:19;;;;;;;2.22;0.95;;;11.10;67.20;;;;;;4898558;29;20482;-79
2023/01/09 13:59:47;;;;;;;2.20;0.73;;;10.90;67.00;;;;;;4940424;29;20088;-78
2023/01/09 14:02:35;;;;;;;6.00;1.20;;;10.80;67.40;;;;;;4940716;29;20024;-78
2023/01/09 14:05:11;;;;;;;3.72;1.23;;;10.70;68.00;;;;;;4940477;29;20055;-79
2023/01/09 14:07:48;;;;;;;4.70;1.40;;;10.70;68.40;;;;;;4940476;29;20020;-78
2023/01/09 14:10:26;;;;;;;9.45;1.73;;;10.80;68.90;;;;;;4948162;29;20114;-78
2023/01/09 14:12:54;;;;;;;3.25;1.10;;;10.80;69.70;;;;;;4942714;29;20042;-78
2023/01/09 14:15:38;;;;;;;7.55;1.30;;;10.70;70.40;;;;;;4940398;29;20678;-79
2023/01/09 14:18:13;;;;;;;3.85;1.30;;;10.60;71.10;;;;;;4940426;29;20024;-78
2023/01/09 14:20:45;;;;;;;8.50;1.95;;;10.50;72.10;;;;;;4941298;29;20070;-78
2023/01/09 14:23:34;;;;;;;7.18;1.50;;;10.40;72.20;;;;;;4940103;29;20079;-77
2023/01/09 14:26:01;;;;;;;5.13;1.53;;;10.40;72.60;;;;;;4940296;29;20023;-77
2023/01/09 14:28:36;;;;;;;4.85;1.20;;;10.40;73.10;;;;;;4940419;29;20028;-77
2023/01/09 14:31:04;;;;;;;5.05;1.40;;;10.50;73.10;;;;;;4939826;29;20044;-77
2023/01/09 14:33:31;;;;;;;11.63;1.75;;;10.70;73.10;;;;;;4939757;29;20026;-77
2023/01/09 14:36:14;;;;;;;2.88;1.35;;;10.70;72.50;;;;;;4940348;29;20027;-77
2023/01/09 14:38:52;;;;;;;5.32;1.40;;;10.70;71.70;;;;;;4939685;29;20031;-78
2023/01/09 14:42:04;;;;;;;5.65;1.25;;;10.80;70.60;;;;;;4947850;29;20055;-78
2023/01/09 14:45:00;;;;;;;6.03;1.50;;;10.80;69.80;;;;;;4922653;29;20126;-78
2023/01/09 14:47:38;;;;;;;5.78;1.20;;;10.70;69.40;;;;;;4942799;29;20019;-78
2023/01/09 14:50:05;;;;;;;6.53;1.38;;;10.70;69.20;;;;;;4957173;29;20034;-77
2023/01/09 14:52:56;;;;;;;5.95;1.40;;;10.70;69.10;;;;;;4939629;29;20089;-77
2023/01/09 14:55:49;;;;;;;6.03;1.25;;;10.70;68.90;;;;;;4955494;29;20027;-79
2023/01/09 14:58:24;;;;;;;3.58;1.00;;;10.70;68.80;;;;;;4942304;29;20142;-78
2023/01/09 15:01:03;;;;;;;3.10;1.13;;;10.70;68.00;;;;;;4939272;29;20435;-79
2023/01/09 15:03:39;;;;;;;9.35;1.73;;;10.70;68.20;;;;;;4939377;29;20050;-78
2023/01/09 15:06:09;;;;;;;6.90;1.63;;;10.70;68.30;;;;;;4939361;29;20095;-78
2023/01/09 15:08:35;;;;;;;4.43;1.20;;;10.60;67.70;;;;;;4939733;29;20027;-78
2023/01/09 15:11:01;;;;;;;3.08;0.82;;;10.60;67.50;;;;;;4936045;29;20063;-78
2023/01/09 15:13:36;;;;;;;5.70;1.38;;;10.60;67.80;;;;;;4958357;29;20537;-78
2023/01/09 15:16:06;;;;;;;5.07;1.35;;;10.60;68.10;;;;;;4952810;29;20035;-78
2023/01/09 15:18:41;;;;;;;2.33;1.07;;;10.60;68.20;;;;;;4928105;29;20599;-78
2023/01/09 15:21:34;;;;;;;6.00;1.25;;;10.60;67.50;;;;;;4958380;29;20020;-78
2023/01/09 15:24:25;;;;;;;5.55;1.27;;;10.60;66.70;;;;;;4957770;29;20075;-78
2023/01/09 15:27:03;;;;;;;4.53;0.93;;;10.60;66.70;;;;;;4945262;29;20035;-78
2023/01/09 15:29:29;;;;;;;1.33;1.10;;;10.50;66.60;;;;;;4938867;29;20028;-78
2023/01/09 15:32:06;;;;;;;4.80;1.08;;;10.50;66.40;;;;;;4938831;29;20141;-78
2023/01/09 15:34:35;;;;;;;4.88;1.30;;;10.40;66.20;;;;;;4938837;29;20481;-78
2023/01/09 15:37:01;;;;;;;4.72;1.27;;;10.30;64.70;;;;;;4939238;29;20036;-78
2023/01/09 15:39:34;;;;;;;3.33;1.30;;;10.30;64.70;;;;;;4940417;29;20029;-78
2023/01/09 15:44:48;;;;;;;4.82;1.40;;;10.20;65.40;;;;;;4938688;29;20153;-78
2023/01/09 15:47:18;;;;;;;4.22;1.20;;;10.20;65.50;;;;;;4938627;29;20024;-78
2023/01/09 15:49:45;;;;;;;3.15;1.27;;;10.20;65.90;;;;;;4938556;29;20028;-78
2023/01/09 15:52:14;;;;;;;4.80;1.90;;;10.10;65.80;;;;;;4938394;29;20619;-78
2023/01/09 15:54:42;;;;;;;4.88;1.20;;;10.10;66.20;;;;;;4948626;29;20042;-78
2023/01/09 15:57:26;;;;;;;4.28;1.23;;;10.00;65.90;;;;;;4940598;29;20027;-78
2023/01/09 15:59:52;;;;;;;4.40;1.30;;;10.00;65.90;;;;;;4957423;29;20040;-78
2023/01/09 16:05:12;;;;;;;2.33;0.90;;;9.90;66.30;;;;;;4950975;29;20047;-78
2023/01/09 16:07:47;;;;;;;3.63;1.63;;;9.80;65.80;;;;;;4938383;29;20474;-78
2023/01/09 16:10:26;;;;;;;3.08;1.17;;;9.80;66.10;;;;;;4941049;29;20118;-78
2023/01/09 16:12:53;;;;;;;3.90;1.10;;;9.80;66.40;;;;;;4957475;29;20510;-78
2023/01/09 16:15:20;;;;;;;2.47;0.93;;;9.70;66.70;;;;;;4942463;29;20032;-79
2023/01/09 16:18:12;;;;;;;4.47;1.40;;;9.70;67.00;;;;;;4938297;29;20058;-78
2023/01/09 16:20:38;;;;;;;3.05;1.40;;;9.70;67.10;;;;;;4938119;29;20059;-78
2023/01/09 16:23:23;;;;;;;3.15;1.15;;;9.60;67.60;;;;;;4938303;29;20042;-78
2023/01/09 16:25:49;;;;;;;1.55;1.40;;;9.50;67.80;;;;;;4938452;29;20396;-78
2023/01/09 16:28:19;;;;;;;2.65;0.98;;;9.50;68.50;;;;;;4938909;29;20031;-78
2023/01/09 16:30:59;;;;;;;3.22;1.17;;;9.50;68.70;;;;;;4954915;29;20055;-78
2023/01/09 16:33:28;;;;;;;3.78;1.20;;;9.40;69.00;;;;;;4953372;29;20035;-76
2023/01/09 16:35:54;;;;;;;2.00;1.13;;;9.30;69.20;;;;;;4938151;29;20443;-78
2023/01/09 16:38:21;;;;;;;1.85;1.08;;;9.30;69.50;;;;;;4937932;29;20024;-78
2023/01/09 16:44:08;;;;;;;5.85;1.70;;;9.20;70.00;;;;;;4952818;28;20534;-77
2023/01/09 16:46:37;;;;;;;3.43;1.20;;;9.20;70.30;;;;;;4941753;29;20026;-77
2023/01/09 16:49:04;;;;;;;5.53;2.22;;;9.20;70.40;;;;;;4942163;29;20075;-77
2023/01/09 16:51:30;;;;;;;5.88;2.30;;;9.10;70.30;;;;;;4941699;29;20483;-77
2023/01/09 16:53:55;;;;;;;2.97;1.38;;;9.10;70.80;;;;;;4946424;29;20035;-77
2023/01/09 16:56:27;;;;;;;3.67;1.70;;;9.10;70.90;;;;;;4960748;29;20035;-77
2023/01/09 16:58:53;;;;;;;6.93;1.58;;;9.10;70.90;;;;;;4960725;29;20034;-77
2023/01/09 17:01:20;;;;;;;5.43;1.17;;;9.00;70.90;;;;;;4950026;29;20028;-77
2023/01/09 17:03:47;;;;;;;2.17;1.58;;;9.00;71.10;;;;;;4958832;29;20026;-77
2023/01/09 17:06:32;;;;;;;4.88;1.40;;;9.00;71.00;;;;;;4956076;29;20031;-77
2023/01/09 17:08:58;;;;;;;8.35;1.83;;;9.00;71.00;;;;;;4941076;29;20044;-77
2023/01/09 17:11:31;;;;;;;3.80;1.40;;;9.00;71.10;;;;;;4954829;29;20039;-77
2023/01/09 17:14:01;;;;;;;3.08;1.88;;;8.90;71.30;;;;;;4954770;29;20058;-77
2023/01/09 17:16:28;;;;;;;4.72;1.95;;;9.00;71.40;;;;;;4941264;29;20031;-78
2023/01/09 17:18:54;;;;;;;8.13;2.90;;;8.90;71.40;;;;;;4941838;29;20036;-82
2023/01/09 17:21:22;;;;;;;7.70;3.13;;;8.90;71.60;;;;;;4953125;29;20034;-77
2023/01/09 17:29:22;;;;;;;4.60;2.70;;;8.80;71.80;;;;;;4950636;29;20042;-83
2023/01/09 17:31:48;;;;;;;6.18;2.53;;;8.70;72.00;;;;;;4941367;29;20052;-77
2023/01/09 17:34:14;;;;;;;8.20;2.67;;;8.80;72.20;;;;;;4943434;29;20639;-74
2023/01/09 17:36:39;;;;;;;6.38;2.15;;;8.70;72.50;;;;;;4948589;29;20118;-77
2023/01/09 17:39:05;;;;;;;9.48;3.03;;;8.70;72.80;;;;;;4951857;29;20547;-76
2023/01/09 17:41:32;;;;;;;7.80;2.33;;;8.60;72.90;;;;;;4946305;29;20062;-77
2023/01/09 17:43:58;;;;;;;10.60;2.35;;;8.60;73.20;;;;;;4946457;29;20083;-76
2023/01/09 17:46:35;;;;;;;6.43;2.75;;;8.60;73.30;;;;;;4952755;29;20047;-77
2023/01/09 17:49:02;;;;;;;9.80;2.58;;;8.50;73.40;;;;;;4933651;29;20123;-77
2023/01/09 17:51:31;;;;;;;6.57;2.45;;;8.50;73.40;;;;;;4951862;29;20031;-76
2023/01/09 17:53:56;;;;;;;6.78;2.58;;;8.50;73.50;;;;;;4951059;28;20035;-76
2023/01/09 17:56:25;;;;;;;6.28;3.20;;;8.50;73.40;;;;;;4949460;29;20039;-78
2023/01/09 17:58:52;;;;;;;4.88;2.58;;;8.50;73.30;;;;;;4944895;29;20379;-78
2023/01/09 18:01:18;;;;;;;6.82;2.65;;;8.50;73.20;;;;;;4928965;29;20038;-77
2023/01/09 18:03:47;;;;;;;3.90;2.20;;;8.40;73.50;;;;;;4947091;29;20054;-75
2023/01/09 18:06:17;;;;;;;6.35;2.63;;;8.40;73.40;;;;;;4927982;29;20457;-78
2023/01/09 18:08:42;;;;;;;7.60;2.43;;;8.30;73.40;;;;;;4942149;29;20032;-78
2023/01/09 18:11:13;;;;;;;7.70;3.17;;;8.30;73.70;;;;;;4949572;29;20049;-76
2023/01/09 18:13:39;;;;;;;5.70;3.10;;;8.20;73.70;;;;;;4947635;29;20023;-77
2023/01/09 18:16:14;;;;;;;3.70;2.90;;;8.20;73.70;;;;;;4931058;29;20031;-76
2023/01/09 18:18:40;;;;;;;6.25;2.92;;;8.30;73.60;;;;;;4950550;29;20058;-75
2023/01/09 18:21:07;;;;;;;8.35;2.63;;;8.20;73.50;;;;;;4930141;29;20446;-76
2023/01/09 18:23:33;;;;;;;8.60;2.42;;;8.20;73.40;;;;;;4947622;29;20027;-76
2023/01/09 18:26:03;;;;;;;9.25;2.45;;;8.30;73.60;;;;;;4947324;29;20019;-75
2023/01/09 18:28:29;;;;;;;5.13;2.22;;;8.30;73.60;;;;;;4944515;29;20058;-77
2023/01/09 18:31:06;;;;;;;4.00;2.10;;;8.20;73.60;;;;;;4927347;29;20079;-75
2023/01/09 18:33:32;;;;;;;3.63;2.05;;;8.20;74.10;;;;;;4935995;29;20023;-76
2023/01/09 18:36:05;;;;;;;10.00;2.83;;;8.20;74.00;;;;;;4928606;29;20109;-75
2023/01/09 18:38:31;;;;;;;2.60;2.40;;;8.20;74.10;;;;;;4937623;29;20038;-76
2023/01/09 18:41:01;;;;;;;5.75;2.33;;;8.20;74.30;;;;;;4939817;29;20383;-78
2023/01/09 18:43:28;;;;;;;5.65;2.65;;;8.20;74.00;;;;;;4939961;29;20521;-78
2023/01/09 18:45:55;;;;;;;8.13;2.95;;;8.20;74.30;;;;;;4939348;29;20028;-75
2023/01/09 18:48:21;;;;;;;6.50;2.60;;;8.20;74.20;;;;;;4925254;29;20970;-76
2023/01/09 18:50:47;;;;;;;5.53;2.40;;;8.20;74.20;;;;;;4942440;29;20027;-75
2023/01/09 18:53:12;;;;;;;5.95;2.35;;;8.20;74.20;;;;;;4961329;29;20042;-75
2023/01/09 18:55:38;;;;;;;9.23;2.25;;;8.20;74.50;;;;;;4958443;29;20055;-76
2023/01/09 18:58:04;;;;;;;4.55;2.20;;;8.20;74.70;;;;;;4937473;29;20042;-76
2023/01/09 19:00:30;;;;;;;8.23;3.28;;;8.20;74.90;;;;;;4939101;29;20410;-77
2023/01/09 19:02:55;;;;;;;5.93;2.90;;;8.20;74.80;;;;;;4939210;29;20035;-76
2023/01/09 19:05:21;;;;;;;10.80;2.67;;;8.20;74.80;;;;;;4925510;28;20393;-76
2023/01/09 19:07:47;;;;;;;10.60;3.60;;;8.20;75.30;;;;;;4951659;29;20030;-75
2023/01/09 19:10:13;;;;;;;7.35;2.30;;;8.20;75.20;;;;;;4947530;29;20032;-76
2023/01/09 19:12:38;;;;;;;5.35;2.35;;;8.20;75.20;;;;;;4947990;29;20038;-76